Time;durP1;ratioP1;P1;durP2;ratioP2;P2;SDS_P1;SDS_P2;PMS_P1;PMS_P2;Temp;Humidity;BMP_temperature;BMP_pressure;BME280_temperature;BME280_humidity;BME280_pressure;Samples;Min_cycle;Max_cycle;Signal;HPM_P1;HPM_P2
2021/03/31 00:01:29;;;;;;;62.20;22.75;;;;;;;11.32;54.94;102509.66;5047613;28;20102;-75
2021/03/31 00:03:55;;;;;;;60.30;22.58;;;;;;;11.28;54.95;102501.16;5054390;28;20067;-74
2021/03/31 00:06:21;;;;;;;65.88;22.95;;;;;;;11.30;54.84;102505.47;5066564;28;20063;-75
2021/03/31 00:08:47;;;;;;;63.13;23.45;;;;;;;11.24;54.59;102502.31;5064566;28;20052;-75
2021/03/31 00:11:13;;;;;;;62.15;23.83;;;;;;;11.23;54.93;102494.53;5065910;28;20051;-75
2021/03/31 00:13:39;;;;;;;68.95;23.83;;;;;;;11.22;54.56;102496.34;5049392;28;20060;-74
2021/03/31 00:16:05;;;;;;;69.15;22.17;;;;;;;11.23;54.82;102492.78;5056544;28;20109;-74
2021/03/31 00:18:32;;;;;;;59.40;22.92;;;;;;;11.23;53.97;102484.91;5049246;28;20060;-74
2021/03/31 00:21:02;;;;;;;62.50;23.10;;;;;;;11.24;54.37;102488.34;5063306;28;20056;-74
2021/03/31 00:23:29;;;;;;;62.83;23.83;;;;;;;11.25;53.34;102480.38;5051519;28;20056;-75
2021/03/31 00:25:56;;;;;;;65.20;23.55;;;;;;;11.30;54.13;102485.28;5065121;28;20052;-75
2021/03/31 00:28:23;;;;;;;64.82;23.48;;;;;;;11.30;52.47;102466.06;5060052;28;20089;-74
2021/03/31 00:30:56;;;;;;;65.25;23.67;;;;;;;11.33;51.81;102476.34;5054828;28;20061;-75
2021/03/31 00:33:22;;;;;;;64.18;23.52;;;;;;;11.31;52.65;102467.72;5058965;28;20101;-75
2021/03/31 00:35:48;;;;;;;64.15;23.65;;;;;;;11.29;51.79;102467.84;5042505;28;20049;-75
2021/03/31 00:38:14;;;;;;;61.88;21.40;;;;;;;11.23;52.22;102466.50;5066510;28;20060;-74
2021/03/31 00:40:43;;;;;;;68.32;24.35;;;;;;;11.19;53.49;102467.69;5047181;28;20071;-75
2021/03/31 00:43:09;;;;;;;;;;;;;;;11.19;52.70;102470.31;5059235;28;20061;-75
2021/03/31 00:45:36;;;;;;;64.40;23.98;;;;;;;11.17;53.17;102468.72;5052528;28;20822;-74
2021/03/31 00:48:08;;;;;;;63.00;23.25;;;;;;;11.06;53.11;102461.63;5047780;28;20076;-75
2021/03/31 00:50:34;;;;;;;62.60;22.30;;;;;;;11.04;53.14;102460.91;5067061;28;20059;-75
2021/03/31 00:53:02;;;;;;;61.53;23.33;;;;;;;11.01;53.52;102455.84;5060568;28;20511;-75
2021/03/31 00:55:30;;;;;;;63.45;23.98;;;;;;;10.93;53.47;102448.50;5065018;28;20459;-75
2021/03/31 00:57:57;;;;;;;57.57;21.20;;;;;;;10.95;53.08;102446.63;5056219;28;20072;-75
2021/03/31 01:00:25;;;;;;;58.10;21.90;;;;;;;10.91;53.09;102439.91;5041977;28;20107;-75
2021/03/31 01:02:51;;;;;;;59.30;22.38;;;;;;;10.88;53.06;102442.78;5038195;28;20049;-75
2021/03/31 01:05:29;;;;;;;57.55;22.17;;;;;;;10.86;52.46;102439.41;5048692;28;20056;-75
2021/03/31 01:07:56;;;;;;;57.03;22.95;;;;;;;10.77;53.52;102438.25;5064798;28;20056;-74
2021/03/31 01:10:29;;;;;;;65.63;23.45;;;;;;;10.73;54.07;102436.81;5053101;28;20455;-74
2021/03/31 01:13:16;;;;;;;63.05;23.48;;;;;;;10.69;54.81;102428.31;5061762;28;20391;-74
2021/03/31 01:16:10;;;;;;;61.50;23.15;;;;;;;10.67;54.45;102432.00;5044985;28;20419;-74
2021/03/31 01:18:50;;;;;;;68.20;23.83;;;;;;;10.65;53.07;102433.88;5065404;28;20048;-75
2021/03/31 01:22:04;;;;;;;62.10;23.83;;;;;;;10.65;53.87;102434.72;5046436;28;20526;-76
2021/03/31 01:24:33;;;;;;;61.03;23.23;;;;;;;10.65;53.60;102433.88;5055202;28;20130;-76
2021/03/31 01:27:13;;;;;;;67.38;23.63;;;;;;;10.64;53.74;102424.31;5054781;28;20450;-74
2021/03/31 01:29:58;;;;;;;67.63;24.20;;;;;;;10.65;53.54;102418.13;5064866;28;20049;-74
2021/03/31 01:32:34;;;;;;;65.80;24.17;;;;;;;10.69;52.97;102419.59;5041584;28;20435;-74
2021/03/31 01:35:06;;;;;;;59.50;22.48;;;;;;;10.62;53.97;102419.19;5058469;28;20524;-76
2021/03/31 01:37:37;;;;;;;56.90;23.45;;;;;;;10.53;53.88;102406.72;5046787;28;20535;-76
2021/03/31 01:40:09;;;;;;;63.38;24.05;;;;;;;10.51;53.50;102413.84;5060665;28;20081;-76
2021/03/31 01:42:40;;;;;;;70.57;23.55;;;;;;;10.41;54.45;102399.72;5045585;28;20044;-76
2021/03/31 01:45:09;;;;;;;60.78;22.90;;;;;;;10.39;54.53;102405.06;5064630;28;20063;-74
2021/03/31 01:47:40;;;;;;;59.38;24.23;;;;;;;10.32;54.62;102398.53;5060124;28;20049;-74
2021/03/31 01:50:07;;;;;;;63.85;24.77;;;;;;;10.27;54.74;102398.84;5051732;28;20075;-77
2021/03/31 01:52:35;;;;;;;70.28;23.52;;;;;;;10.17;56.17;102396.94;5058253;28;20055;-73
2021/03/31 01:55:04;;;;;;;64.53;24.40;;;;;;;10.16;55.48;102403.16;5052109;28;20052;-73
2021/03/31 01:57:31;;;;;;;54.92;24.23;;;;;;;10.13;55.51;102401.56;5059215;28;20476;-73
2021/03/31 01:59:58;;;;;;;68.20;23.55;;;;;;;10.10;54.44;102401.78;5050390;28;20087;-74
2021/03/31 02:02:25;;;;;;;65.97;25.17;;;;;;;10.03;55.42;102388.22;5053424;28;20044;-74
2021/03/31 02:04:53;;;;;;;69.63;24.98;;;;;;;10.04;56.13;102396.97;5057883;28;20044;-74
2021/03/31 02:07:21;;;;;;;60.05;24.13;;;;;;;10.03;55.43;102390.03;5031798;28;20118;-74
2021/03/31 02:09:49;;;;;;;64.10;24.13;;;;;;;9.93;55.70;102383.72;5053284;28;20388;-74
2021/03/31 02:12:18;;;;;;;69.45;26.08;;;;;;;9.89;55.82;102376.06;5058586;28;20541;-73
2021/03/31 02:14:46;;;;;;;74.57;24.63;;;;;;;9.86;55.67;102375.47;5061442;28;20052;-73
2021/03/31 02:17:24;;;;;;;67.32;25.70;;;;;;;9.87;56.36;102377.13;5037660;28;20131;-73
2021/03/31 02:19:51;;;;;;;69.82;24.83;;;;;;;9.91;55.62;102373.34;5059165;28;20048;-73
2021/03/31 02:22:20;;;;;;;70.93;25.85;;;;;;;9.86;55.31;102376.28;5039478;28;20048;-73
2021/03/31 02:24:47;;;;;;;75.47;27.95;;;;;;;9.92;55.33;102376.78;5062605;28;20136;-74
2021/03/31 02:27:14;;;;;;;63.90;25.63;;;;;;;9.90;55.03;102375.13;5047783;28;20057;-74
2021/03/31 02:29:44;;;;;;;74.15;26.83;;;;;;;9.84;55.34;102362.44;5048192;28;20128;-75
2021/03/31 02:32:12;;;;;;;65.65;26.55;;;;;;;9.74;56.01;102363.16;5064711;28;20055;-75
2021/03/31 02:34:39;;;;;;;65.70;26.90;;;;;;;9.73;56.75;102369.34;5053619;28;20143;-74
2021/03/31 02:37:06;;;;;;;69.75;26.98;;;;;;;9.68;56.53;102369.66;5060717;28;20048;-74
2021/03/31 02:39:38;;;;;;;64.88;25.70;;;;;;;9.64;56.33;102366.41;5058599;28;20049;-74
2021/03/31 02:42:08;;;;;;;64.57;26.30;;;;;;;9.57;57.52;102352.03;5064912;28;20488;-74
2021/03/31 02:44:38;;;;;;;71.05;26.60;;;;;;;9.50;56.87;102340.28;5058730;28;20064;-74
2021/03/31 02:47:06;;;;;;;72.35;28.77;;;;;;;9.48;57.01;102353.47;5037705;28;20075;-74
2021/03/31 02:49:33;;;;;;;70.70;28.73;;;;;;;9.47;57.67;102354.44;5057167;28;20106;-74
2021/03/31 02:52:00;;;;;;;76.35;28.45;;;;;;;9.43;57.52;102350.34;5048704;28;20053;-75
2021/03/31 02:54:28;;;;;;;71.88;27.67;;;;;;;9.44;57.51;102352.00;5044235;28;21005;-74
2021/03/31 02:56:55;;;;;;;74.43;27.52;;;;;;;9.37;57.00;102335.03;5047620;28;20075;-74
2021/03/31 02:59:21;;;;;;;72.93;28.70;;;;;;;9.36;56.49;102343.81;5053050;28;20061;-74
2021/03/31 03:01:47;;;;;;;67.90;26.67;;;;;;;9.37;56.93;102350.75;5038849;28;20048;-75
2021/03/31 03:04:14;;;;;;;71.97;27.55;;;;;;;9.32;57.58;102350.19;5046720;28;20066;-75
2021/03/31 03:06:41;;;;;;;75.78;27.52;;;;;;;9.26;58.17;102355.84;5049887;28;20049;-74
2021/03/31 03:09:09;;;;;;;70.70;30.03;;;;;;;9.23;58.43;102353.41;5052648;28;20053;-74
2021/03/31 03:11:36;;;;;;;78.93;30.42;;;;;;;9.17;57.64;102345.94;5064276;28;20045;-75
2021/03/31 03:14:05;;;;;;;79.18;29.98;;;;;;;9.13;57.68;102344.47;5041495;28;20065;-75
2021/03/31 03:16:31;;;;;;;80.25;33.08;;;;;;;9.11;57.60;102336.72;5055947;28;20060;-75
2021/03/31 03:18:59;;;;;;;76.90;30.83;;;;;;;9.15;57.49;102340.81;5061708;28;20056;-75
2021/03/31 03:21:27;;;;;;;72.68;29.52;;;;;;;9.15;57.23;102345.22;5066580;28;20052;-75
2021/03/31 03:23:54;;;;;;;78.60;29.83;;;;;;;9.10;57.35;102337.69;5060447;28;20056;-75
2021/03/31 03:26:21;;;;;;;74.45;30.45;;;;;;;9.08;57.96;102339.56;5067184;28;20129;-75
2021/03/31 03:28:49;;;;;;;72.70;29.63;;;;;;;9.03;58.35;102339.00;5063499;28;20044;-74
2021/03/31 03:31:16;;;;;;;77.53;29.52;;;;;;;9.01;57.86;102333.84;5057641;28;20052;-74
2021/03/31 03:33:42;;;;;;;85.82;31.88;;;;;;;8.93;58.79;102330.91;5065813;28;20057;-74
2021/03/31 03:36:11;;;;;;;78.88;31.55;;;;;;;8.90;58.29;102331.13;5059975;28;20060;-74
2021/03/31 03:38:37;;;;;;;67.95;29.08;;;;;;;8.85;58.14;102326.16;5065422;28;20080;-74
2021/03/31 03:41:09;;;;;;;77.47;31.80;;;;;;;8.86;57.99;102333.09;5061148;28;20052;-74
2021/03/31 03:43:40;;;;;;;72.55;28.83;;;;;;;8.80;58.20;102324.75;5061328;28;20130;-74
2021/03/31 03:46:09;;;;;;;75.72;32.58;;;;;;;8.75;57.86;102313.78;5068105;28;20131;-74
2021/03/31 03:48:36;;;;;;;78.85;30.00;;;;;;;8.74;58.17;102318.13;5060447;28;20113;-73
2021/03/31 03:51:08;;;;;;;79.55;30.65;;;;;;;8.73;58.55;102315.66;5066021;28;20053;-73
2021/03/31 03:53:34;;;;;;;71.25;29.02;;;;;;;8.75;58.43;102316.38;5060196;28;20053;-73
2021/03/31 03:56:08;;;;;;;77.47;30.67;;;;;;;8.68;58.74;102316.78;5056975;28;20110;-73
2021/03/31 03:58:34;;;;;;;79.53;30.48;;;;;;;8.70;58.64;102317.53;5040884;28;20294;-73
2021/03/31 04:01:00;;;;;;;76.55;31.30;;;;;;;8.69;59.75;102322.84;5063237;28;20072;-73
2021/03/31 04:03:26;;;;;;;84.05;31.27;;;;;;;8.61;59.13;102315.47;5052036;28;20063;-74
2021/03/31 04:05:52;;;;;;;78.75;29.08;;;;;;;8.46;59.05;102293.72;5066103;28;20060;-74
2021/03/31 04:08:18;;;;;;;77.25;29.77;;;;;;;8.48;60.33;102301.50;5063808;28;20056;-74
2021/03/31 04:10:51;;;;;;;79.88;31.42;;;;;;;8.56;59.43;102319.31;5056686;28;20048;-74
2021/03/31 04:13:18;;;;;;;77.30;32.75;;;;;;;8.46;59.80;102312.03;5066161;28;20110;-74
2021/03/31 04:15:46;;;;;;;80.68;31.45;;;;;;;8.45;59.74;102313.00;5061088;28;20052;-74
2021/03/31 04:18:16;;;;;;;81.57;29.80;;;;;;;8.36;60.37;102305.69;5055287;28;20143;-74
2021/03/31 04:20:44;;;;;;;76.00;30.90;;;;;;;8.35;59.99;102313.63;5052718;28;20056;-74
2021/03/31 04:23:11;;;;;;;77.10;31.67;;;;;;;8.31;60.58;102312.97;5053912;28;20064;-74
2021/03/31 04:25:38;;;;;;;79.85;30.15;;;;;;;8.29;60.57;102313.09;5063666;28;20044;-73
2021/03/31 04:28:08;;;;;;;81.38;31.17;;;;;;;8.26;61.00;102310.66;5049522;28;20110;-74
2021/03/31 04:30:35;;;;;;;75.10;31.13;;;;;;;8.25;59.70;102314.22;5065158;28;20049;-74
2021/03/31 04:33:02;;;;;;;84.85;33.20;;;;;;;8.21;60.23;102301.41;5049123;28;20113;-74
2021/03/31 04:35:28;;;;;;;79.65;30.85;;;;;;;8.24;60.68;102309.91;5050713;28;20057;-74
2021/03/31 04:38:14;;;;;;;86.30;31.23;;;;;;;8.29;61.19;102302.63;5038733;28;20061;-74
2021/03/31 04:41:01;;;;;;;87.53;33.78;;;;;;;8.31;61.43;102300.75;5050601;28;20106;-74
2021/03/31 04:43:32;;;;;;;78.82;30.83;;;;;;;8.36;61.56;102308.28;5059391;28;20385;-74
2021/03/31 04:46:00;;;;;;;74.10;30.30;;;;;;;8.31;61.64;102302.50;5063177;28;20052;-74
2021/03/31 04:48:26;;;;;;;74.25;30.55;;;;;;;8.26;60.88;102297.56;5061499;28;20132;-74
2021/03/31 04:50:53;;;;;;;78.80;31.35;;;;;;;8.21;61.38;102299.66;5058124;28;20048;-74
2021/03/31 04:53:19;;;;;;;71.82;30.27;;;;;;;8.19;60.85;102303.28;5060217;28;20060;-74
2021/03/31 04:55:45;;;;;;;78.85;31.45;;;;;;;8.12;61.19;102302.81;5058755;28;20461;-74
2021/03/31 04:58:12;;;;;;;77.18;30.55;;;;;;;8.09;60.74;102295.97;5064659;28;20109;-74
2021/03/31 05:00:38;;;;;;;75.18;30.05;;;;;;;8.07;61.32;102303.06;5056882;28;20498;-74
2021/03/31 05:03:06;;;;;;;75.55;30.20;;;;;;;8.03;61.04;102306.00;5057531;28;20434;-74
2021/03/31 05:05:37;;;;;;;78.97;31.15;;;;;;;7.97;61.75;102303.75;5053797;28;20047;-73
2021/03/31 05:08:03;;;;;;;77.60;31.00;;;;;;;7.94;61.60;102296.94;5051912;28;20410;-74
2021/03/31 05:10:29;;;;;;;84.57;32.00;;;;;;;7.82;62.17;102279.38;5065245;28;20052;-74
2021/03/31 05:12:56;;;;;;;73.28;31.00;;;;;;;7.90;62.06;102295.47;5056180;28;20104;-74
2021/03/31 05:15:22;;;;;;;78.82;29.00;;;;;;;7.93;60.86;102293.47;5065543;28;20395;-74
2021/03/31 05:17:48;;;;;;;81.25;31.83;;;;;;;7.92;61.21;102302.25;5055261;28;20462;-73
2021/03/31 05:20:15;;;;;;;80.35;31.30;;;;;;;7.89;61.45;102291.16;5059280;28;20456;-74
2021/03/31 05:22:41;;;;;;;78.70;31.08;;;;;;;7.90;60.67;102288.44;5056757;28;20056;-73
2021/03/31 05:25:10;;;;;;;74.77;30.57;;;;;;;7.86;61.85;102289.56;5061352;28;20426;-74
2021/03/31 05:27:37;;;;;;;74.82;30.67;;;;;;;7.85;61.56;102289.66;5046198;28;20083;-74
2021/03/31 05:30:06;;;;;;;76.00;29.80;;;;;;;7.83;61.35;102288.91;5054119;28;20131;-74
2021/03/31 05:32:32;;;;;;;80.95;31.15;;;;;;;7.76;62.07;102280.59;5048581;28;20098;-73
2021/03/31 05:34:58;;;;;;;78.88;30.70;;;;;;;7.78;62.46;102286.59;5053664;28;20064;-73
2021/03/31 05:37:24;;;;;;;70.07;29.85;;;;;;;7.70;61.97;102267.91;5063952;28;20101;-74
2021/03/31 05:39:50;;;;;;;77.07;30.60;;;;;;;7.76;62.23;102275.34;5057780;28;20547;-74
2021/03/31 05:42:16;;;;;;;81.40;31.35;;;;;;;7.76;62.76;102280.59;5062839;28;20422;-74
2021/03/31 05:44:44;;;;;;;69.00;31.38;;;;;;;7.78;62.08;102278.75;5057648;28;20078;-74
2021/03/31 05:47:17;;;;;;;75.10;30.75;;;;;;;7.79;62.49;102285.63;5057058;28;20121;-74
2021/03/31 05:49:45;;;;;;;73.15;29.13;;;;;;;7.84;61.53;102283.59;5042737;28;20045;-74
2021/03/31 05:52:11;;;;;;;96.72;31.83;;;;;;;7.82;61.96;102275.00;5053135;28;20059;-74
2021/03/31 05:54:38;;;;;;;86.13;31.50;;;;;;;7.85;62.24;102273.97;5063170;28;20167;-74
2021/03/31 05:57:07;;;;;;;129.90;51.97;;;;;;;7.83;62.41;102281.06;5058694;28;20058;-74
2021/03/31 05:59:35;;;;;;;87.25;32.60;;;;;;;7.79;63.04;102272.56;5054740;28;20442;-74
2021/03/31 06:02:01;;;;;;;121.72;43.17;;;;;;;7.81;63.54;102278.53;5054476;28;20060;-74
2021/03/31 06:04:28;;;;;;;90.68;35.28;;;;;;;7.72;63.43;102258.19;5055548;28;20051;-74
2021/03/31 06:06:54;;;;;;;79.00;32.70;;;;;;;7.86;63.44;102283.47;5055147;28;20040;-74
2021/03/31 06:09:20;;;;;;;93.25;32.90;;;;;;;7.88;62.59;102271.19;5054401;28;20103;-74
2021/03/31 06:11:50;;;;;;;92.90;33.10;;;;;;;7.94;62.79;102278.66;5064576;28;20055;-74
2021/03/31 06:14:40;;;;;;;92.63;31.30;;;;;;;7.97;63.36;102281.06;5051152;28;20056;-74
2021/03/31 06:17:11;;;;;;;80.72;30.83;;;;;;;8.01;63.60;102295.63;5063038;28;20147;-74
2021/03/31 06:19:42;;;;;;;87.95;31.77;;;;;;;7.97;64.35;102286.28;5060022;28;20060;-74
2021/03/31 06:22:27;;;;;;;82.97;31.88;;;;;;;8.05;62.97;102285.81;5065063;28;20407;-77
2021/03/31 06:25:07;;;;;;;83.32;30.67;;;;;;;8.12;63.22;102276.69;5044890;28;20094;-74
2021/03/31 06:27:34;;;;;;;83.38;30.00;;;;;;;8.19;62.65;102279.75;5047554;28;20799;-75
2021/03/31 06:30:06;;;;;;;72.05;27.30;;;;;;;8.28;61.97;102287.84;5057633;28;20083;-73
2021/03/31 06:32:36;;;;;;;79.45;30.45;;;;;;;8.31;62.32;102281.59;5050671;28;20491;-75
2021/03/31 06:35:06;;;;;;;72.53;30.20;;;;;;;8.34;61.85;102281.41;5065717;28;20551;-78
2021/03/31 06:37:36;;;;;;;74.78;30.60;;;;;;;8.43;62.65;102286.09;5061865;28;20059;-75
2021/03/31 06:40:05;;;;;;;73.72;29.40;;;;;;;8.47;62.28;102281.53;5053848;28;20105;-74
2021/03/31 06:42:42;;;;;;;75.00;30.45;;;;;;;8.51;61.92;102286.44;5053273;28;20056;-75
2021/03/31 06:45:14;;;;;;;79.20;30.17;;;;;;;8.57;61.73;102281.78;5060932;28;20143;-74
2021/03/31 06:50:12;;;;;;;74.85;31.85;;;;;;;8.67;61.74;102273.22;5069086;28;20462;-74
2021/03/31 06:52:58;;;;;;;71.75;31.00;;;;;;;8.69;61.62;102271.34;5061369;28;20079;-75
2021/03/31 06:55:26;;;;;;;77.13;31.60;;;;;;;8.76;61.07;102269.19;5051699;28;20508;-75
2021/03/31 06:57:53;;;;;;;89.63;33.97;;;;;;;8.85;61.70;102273.00;5055580;28;20103;-75
2021/03/31 07:00:25;;;;;;;78.28;30.63;;;;;;;8.90;61.19;102257.84;5064152;28;20044;-74
2021/03/31 07:02:53;;;;;;;72.45;29.25;;;;;;;8.93;61.04;102254.19;5061731;28;20049;-74
2021/03/31 07:05:20;;;;;;;69.97;30.05;;;;;;;9.02;61.07;102257.03;5049454;28;20056;-75
2021/03/31 07:07:46;;;;;;;69.85;28.83;;;;;;;9.11;61.95;102260.81;5055777;28;20060;-75
2021/03/31 07:10:17;;;;;;;78.05;32.30;;;;;;;9.16;61.53;102255.28;5057651;28;20066;-75
2021/03/31 07:12:44;;;;;;;75.22;31.52;;;;;;;9.23;62.02;102257.38;5056224;28;20122;-75
2021/03/31 07:15:13;;;;;;;69.85;30.42;;;;;;;9.32;61.42;102257.72;5061715;28;20053;-75
2021/03/31 07:17:41;;;;;;;;;;;;;;;9.38;61.86;102254.66;5069299;28;20143;-75
2021/03/31 07:20:08;;;;;;;72.27;28.50;;;;;;;9.39;61.32;102251.97;5065143;28;19931;-77
2021/03/31 07:22:35;;;;;;;64.03;28.58;;;;;;;9.50;61.28;102254.66;5059755;28;20072;-75
2021/03/31 07:25:04;;;;;;;65.53;30.35;;;;;;;9.60;61.97;102257.50;5065324;28;20341;-75
2021/03/31 07:27:33;;;;;;;66.50;29.50;;;;;;;9.61;60.78;102258.34;5042316;28;20049;-76
2021/03/31 07:30:08;;;;;;;66.15;28.17;;;;;;;9.72;61.88;102255.81;5063861;28;20056;-76
2021/03/31 07:32:47;;;;;;;69.95;29.17;;;;;;;9.77;61.86;102258.13;5063748;28;20106;-76
2021/03/31 07:35:14;;;;;;;76.07;30.20;;;;;;;9.86;62.01;102266.22;5062374;28;20444;-76
2021/03/31 07:37:41;;;;;;;70.30;29.48;;;;;;;9.94;62.00;102264.81;5038812;28;20048;-76
2021/03/31 07:40:10;;;;;;;65.97;25.08;;;;;;;10.02;60.19;102258.09;5061636;28;20064;-76
2021/03/31 07:42:41;;;;;;;65.72;26.80;;;;;;;10.04;58.55;102250.13;5062521;28;20090;-76
2021/03/31 07:45:10;;;;;;;52.90;25.17;;;;;;;10.37;56.39;102260.06;5053858;28;20049;-76
2021/03/31 07:47:36;;;;;;;;;;;;;;;10.62;54.45;102261.75;5068324;28;20045;-76
2021/03/31 07:50:04;;;;;;;52.20;21.58;;;;;;;10.81;53.82;102255.97;5046568;28;19932;-75
2021/03/31 07:52:57;;;;;;;48.20;22.67;;;;;;;10.94;55.03;102260.31;5046346;28;20045;-75
2021/03/31 07:55:43;;;;;;;53.60;22.92;;;;;;;11.00;54.98;102260.72;5054711;28;20894;-75
2021/03/31 07:58:12;;;;;;;51.08;22.33;;;;;;;11.06;56.00;102262.06;5072290;28;20057;-75
2021/03/31 08:00:48;;;;;;;48.15;22.70;;;;;;;11.15;55.02;102268.38;5059471;28;20063;-75
2021/03/31 08:03:19;;;;;;;54.70;23.42;;;;;;;11.27;55.41;102267.47;5058999;28;20202;-75
2021/03/31 08:06:11;;;;;;;42.85;21.55;;;;;;;11.45;53.72;102266.09;5040475;28;20077;-75
2021/03/31 08:08:43;;;;;;;44.38;21.73;;;;;;;11.58;54.27;102262.50;5058272;28;20053;-75
2021/03/31 08:11:10;;;;;;;47.72;23.23;;;;;;;11.74;52.21;102273.53;5055020;28;20431;-75
2021/03/31 08:13:38;;;;;;;58.38;24.88;;;;;;;11.96;51.30;102256.97;5064989;28;20045;-75
2021/03/31 08:16:26;;;;;;;52.30;23.33;;;;;;;12.21;50.49;102265.53;5051555;28;20470;-75
2021/03/31 08:18:55;;;;;;;48.97;22.90;;;;;;;12.31;50.66;102263.84;5042716;28;20481;-76
2021/03/31 08:21:24;;;;;;;52.50;22.00;;;;;;;12.43;50.85;102262.88;5047962;28;20053;-76
2021/03/31 08:23:52;;;;;;;44.58;21.85;;;;;;;12.46;50.87;102265.22;5052689;28;20045;-76
2021/03/31 08:26:30;;;;;;;44.23;22.83;;;;;;;12.60;50.73;102260.66;5054099;28;20083;-76
2021/03/31 08:29:02;;;;;;;70.15;26.08;;;;;;;12.80;50.66;102264.28;5041942;28;20083;-76
2021/03/31 08:31:34;;;;;;;55.50;23.30;;;;;;;13.02;48.89;102266.00;5053842;28;20052;-76
2021/03/31 08:34:00;;;;;;;50.95;24.88;;;;;;;13.28;49.00;102263.81;5040853;28;20095;-75
2021/03/31 08:36:27;;;;;;;47.05;22.10;;;;;;;13.48;48.86;102261.34;5056752;28;20048;-75
2021/03/31 08:38:55;;;;;;;52.72;24.20;;;;;;;13.69;47.76;102258.69;5061309;28;20117;-76
2021/03/31 08:41:24;;;;;;;61.08;24.30;;;;;;;13.85;48.68;102251.09;5066019;28;20118;-76
2021/03/31 08:43:51;;;;;;;48.58;25.85;;;;;;;13.97;48.24;102249.22;5062198;28;20110;-76
2021/03/31 08:46:28;;;;;;;50.20;24.75;;;;;;;14.20;47.82;102255.13;5056023;28;20098;-76
2021/03/31 08:48:54;;;;;;;52.67;25.63;;;;;;;14.41;47.83;102255.84;5065003;28;20057;-76
2021/03/31 08:51:21;;;;;;;53.33;24.20;;;;;;;14.64;48.38;102255.63;5060162;28;20067;-76
2021/03/31 08:53:48;;;;;;;41.40;23.67;;;;;;;14.86;48.14;102246.59;5051598;28;20053;-76
2021/03/31 08:56:18;;;;;;;51.05;23.92;;;;;;;15.06;46.56;102249.22;5057565;28;20052;-76
2021/03/31 08:58:53;;;;;;;49.83;24.17;;;;;;;15.17;46.87;102230.56;5060973;28;20060;-77
2021/03/31 09:01:31;;;;;;;53.03;23.67;;;;;;;15.50;46.02;102241.59;5053623;28;20056;-76
2021/03/31 09:04:19;;;;;;;48.13;25.45;;;;;;;15.73;45.83;102239.47;5064097;28;20048;-76
2021/03/31 09:06:45;;;;;;;50.20;23.47;;;;;;;15.93;44.49;102238.38;5043948;28;20572;-76
2021/03/31 09:09:12;;;;;;;42.30;22.00;;;;;;;16.12;43.04;102234.81;5043900;28;20282;-76
2021/03/31 09:11:39;;;;;;;46.25;23.35;;;;;;;16.36;44.06;102236.06;5059339;28;20513;-76
2021/03/31 09:14:25;;;;;;;49.50;22.75;;;;;;;16.53;44.64;102232.59;5056107;28;20118;-76
2021/03/31 09:16:55;;;;;;;46.20;22.50;;;;;;;16.79;43.41;102227.34;5065340;28;20052;-76
2021/03/31 09:19:29;;;;;;;47.03;23.27;;;;;;;16.98;43.99;102225.53;5059160;28;20056;-76
2021/03/31 09:21:56;;;;;;;46.63;21.70;;;;;;;17.13;42.75;102223.16;5064454;28;20557;-75
2021/03/31 09:24:25;;;;;;;65.72;23.80;;;;;;;17.31;41.02;102229.25;5060005;28;20064;-76
2021/03/31 09:27:03;;;;;;;47.53;23.48;;;;;;;17.43;40.48;102234.28;5060756;28;20553;-76
2021/03/31 09:29:30;;;;;;;46.72;23.08;;;;;;;17.53;40.17;102217.25;5050169;28;20061;-76
2021/03/31 09:31:59;;;;;;;42.25;22.23;;;;;;;17.74;40.99;102218.69;5060643;28;20052;-76
2021/03/31 09:34:27;;;;;;;46.55;22.65;;;;;;;17.93;40.89;102214.97;5064029;28;20139;-77
2021/03/31 09:37:11;;;;;;;47.42;22.42;;;;;;;18.20;39.60;102218.38;5059720;28;20071;-76
2021/03/31 09:39:48;;;;;;;45.10;22.67;;;;;;;18.36;38.62;102211.25;5062024;28;20048;-76
2021/03/31 09:42:31;;;;;;;44.67;22.33;;;;;;;18.42;37.20;102215.06;5055547;28;20048;-76
2021/03/31 09:44:59;;;;;;;41.75;21.00;;;;;;;18.62;36.25;102212.94;5065264;28;20415;-77
2021/03/31 09:47:27;;;;;;;41.20;21.38;;;;;;;18.89;36.41;102202.97;5057999;28;20045;-76
2021/03/31 09:49:54;;;;;;;55.58;22.98;;;;;;;19.14;36.85;102209.94;5066601;28;20045;-76
2021/03/31 09:52:27;;;;;;;44.92;20.40;;;;;;;19.28;35.77;102208.38;5060941;28;20044;-77
2021/03/31 09:54:55;;;;;;;43.65;20.98;;;;;;;19.55;36.64;102196.50;5060005;28;20059;-77
2021/03/31 09:57:25;;;;;;;45.95;22.58;;;;;;;19.71;36.41;102200.94;5062339;28;20113;-76
2021/03/31 09:59:52;;;;;;;52.20;23.08;;;;;;;19.88;36.56;102200.91;5050010;28;20506;-76
2021/03/31 10:02:18;;;;;;;44.95;23.10;;;;;;;20.06;36.97;102196.13;5060920;28;20049;-76
2021/03/31 10:04:45;;;;;;;46.85;22.70;;;;;;;20.22;36.27;102189.84;5057860;28;20083;-75
2021/03/31 10:07:17;;;;;;;49.83;24.88;;;;;;;20.49;36.19;102193.00;5060979;28;20091;-74
2021/03/31 10:10:02;;;;;;;45.10;22.50;;;;;;;20.71;35.54;102196.66;5047538;28;20160;-75
2021/03/31 10:12:31;;;;;;;46.10;23.60;;;;;;;20.83;34.55;102191.72;5063389;28;20044;-75
2021/03/31 10:14:59;;;;;;;47.20;23.90;;;;;;;21.06;34.56;102184.50;5058191;28;20057;-75
2021/03/31 10:17:30;;;;;;;51.25;25.35;;;;;;;21.32;34.52;102188.56;5064550;28;20045;-75
2021/03/31 10:20:17;;;;;;;45.85;24.65;;;;;;;21.51;34.57;102182.69;5063069;28;20462;-75
2021/03/31 10:22:52;;;;;;;51.90;23.13;;;;;;;21.63;32.72;102175.00;5046133;28;20055;-74
2021/03/31 10:25:33;;;;;;;46.17;23.35;;;;;;;21.85;32.65;102172.38;5061687;28;20056;-74
2021/03/31 10:28:39;;;;;;;46.70;23.02;;;;;;;22.02;31.54;102170.31;5058421;28;20090;-74
2021/03/31 10:31:25;;;;;;;51.00;23.45;;;;;;;22.21;31.57;102168.84;5055972;28;20059;-74
2021/03/31 10:34:13;;;;;;;44.97;24.40;;;;;;;22.19;30.72;102160.19;5058573;28;20052;-74
2021/03/31 10:37:01;;;;;;;151.70;73.25;;;;;;;;;;5061054;28;20636;-74
2021/03/31 10:53:42;;;;;;;47.97;24.85;;;;;;;22.94;28.85;102160.63;5062259;28;20055;-73
2021/03/31 10:56:09;;;;;;;48.72;24.00;;;;;;;23.26;29.97;102153.84;5053450;28;20060;-73
2021/03/31 10:58:35;;;;;;;44.20;24.15;;;;;;;23.49;29.46;102150.84;5055187;28;20114;-72
2021/03/31 11:01:01;;;;;;;44.70;24.08;;;;;;;23.62;29.18;102147.38;5055604;28;21391;-73
2021/03/31 11:03:27;;;;;;;49.60;25.73;;;;;;;23.66;27.87;102154.00;5048004;28;20056;-73
2021/03/31 11:05:54;;;;;;;49.45;23.10;;;;;;;23.77;26.91;102141.88;5055147;28;20071;-73
2021/03/31 11:08:23;;;;;;;48.75;24.10;;;;;;;23.90;27.91;102141.94;5040132;28;20072;-73
2021/03/31 11:10:50;;;;;;;48.85;23.33;;;;;;;24.18;27.86;102147.13;5058042;28;20495;-75
2021/03/31 11:13:17;;;;;;;43.65;21.70;;;;;;;24.40;27.34;102138.88;5056521;28;20048;-72
2021/03/31 11:15:43;;;;;;;51.22;23.65;;;;;;;24.56;26.89;102145.69;5064851;28;20056;-72
2021/03/31 11:26:11;;;;;;;48.78;24.35;;;;;;;24.66;25.84;102127.34;5068725;28;20435;-72
2021/03/31 11:28:37;;;;;;;47.38;24.23;;;;;;;24.91;25.48;102130.16;5064757;28;20048;-72
2021/03/31 11:31:05;;;;;;;52.30;24.35;;;;;;;25.11;25.26;102122.06;5064091;28;20083;-72
2021/03/31 11:33:31;;;;;;;52.08;24.75;;;;;;;25.21;24.84;102125.13;5047974;28;20182;-72
2021/03/31 11:35:58;;;;;;;48.40;24.30;;;;;;;25.25;24.50;102109.44;5054701;28;20103;-72
2021/03/31 11:38:24;;;;;;;49.30;23.90;;;;;;;25.30;25.26;102122.22;5047974;28;20447;-71
2021/03/31 11:40:51;;;;;;;54.13;23.88;;;;;;;25.34;24.21;102115.38;5047980;28;20101;-75
2021/03/31 11:43:17;;;;;;;52.15;26.92;;;;;;;25.38;24.61;102120.09;5066789;28;20053;-71
2021/03/31 11:45:45;;;;;;;53.13;26.45;;;;;;;25.30;24.35;102114.16;5060075;28;20151;-72
2021/03/31 11:48:11;;;;;;;48.67;25.90;;;;;;;25.39;24.69;102115.59;5063732;28;20052;-72
2021/03/31 11:50:37;;;;;;;49.53;26.58;;;;;;;25.45;25.02;102110.16;5066947;28;20452;-73
2021/03/31 11:53:03;;;;;;;52.95;25.33;;;;;;;25.74;26.00;102112.50;5060989;28;20052;-72